Terminal Aerodrome Forecast
Issued by NWS Jackson, KY

Home | Current Version | Previous Version | Text Only | Print | Product List | Glossary On
Versions: 1 2 3 4 5 6 7 8 9 10 11 12
313
FTUS43 KJKL 171120
TAFLOZ
TAF
KLOZ 171120Z 1712/1812 VRB03KT P6SM BKN200
     FM171700 VRB03KT P6SM VCSH OVC080
     FM172200 VRB03KT P6SM -RA OVC025
     FM180200 VRB03KT P6SM OVC015
     FM180500 VRB03KT 3SM -DZ OVC008=

USA.gov is the U.S. government's official web portal to all federal, state and local government web resources and services.